Aviation Digital Data Service (ADDS)

Output produced by METARs form (2053 UTC 08 August 2020)
found at http://www.aviationweather.gov/metar/data/
 
METAR text: DGAA 082000Z 20009KT CAVOK 24/22 Q1016 NOSIG
Conditions at: DGAA (ACCRA/KOTOKA INT, GH) observed 2000 UTC 08 August 2020
Temperature: 24.0°C (75°F)
Dewpoint: 22.0°C (72°F) [RH = 89%]
Pressure (altimeter): 30.00 inches Hg (1016.0 mb)
Winds: from the SSW (200 degrees) at 10 MPH (9 knots; 4.6 m/s)
Visibility: 6 or more miles (10+ km)
Ceiling: ceiling and visibility are OK
Clouds: unknown
Weather: no significant weather observed at this time

METAR text: DGAA 081800Z 19008KT CAVOK 25/21 Q1015 NOSIG
Conditions at: DGAA (ACCRA/KOTOKA INT, GH) observed 1800 UTC 08 August 2020
Temperature: 25.0°C (77°F)
Dewpoint: 21.0°C (70°F) [RH = 79%]
Pressure (altimeter): 29.97 inches Hg (1015.0 mb)
Winds: from the S (190 degrees) at 9 MPH (8 knots; 4.1 m/s)
Visibility: 6 or more miles (10+ km)
Ceiling: ceiling and visibility are OK
Clouds: unknown
Weather: no significant weather observed at this time

METAR text: DGAA 081700Z 19010KT CAVOK 26/21 Q1015 NOSIG
Conditions at: DGAA (ACCRA/KOTOKA INT, GH) observed 1700 UTC 08 August 2020
Temperature: 26.0°C (79°F)
Dewpoint: 21.0°C (70°F) [RH = 74%]
Pressure (altimeter): 29.97 inches Hg (1015.0 mb)
Winds: from the S (190 degrees) at 12 MPH (10 knots; 5.1 m/s)
Visibility: 6 or more miles (10+ km)
Ceiling: ceiling and visibility are OK
Clouds: unknown
Weather: no significant weather observed at this time

METAR text: DGAA 081600Z 19010KT 160V220 9999 FEW025 26/21 Q1015 NOSIG
Conditions at: DGAA (ACCRA/KOTOKA INT, GH) observed 1600 UTC 08 August 2020
Temperature: 26.0°C (79°F)
Dewpoint: 21.0°C (70°F) [RH = 74%]
Pressure (altimeter): 29.97 inches Hg (1015.0 mb)
Winds: from the S (190 degrees) at 12 MPH (10 knots; 5.1 m/s)
Visibility: 6 or more miles (10+ km)
Ceiling: at least 12,000 feet AGL
Clouds: few clouds at 2500 feet AGL
Weather: no significant weather observed at this time

METAR text: DGAA 081500Z 18012KT 150V220 9999 SCT025 27/21 Q1015 NOSIG
Conditions at: DGAA (ACCRA/KOTOKA INT, GH) observed 1500 UTC 08 August 2020
Temperature: 27.0°C (81°F)
Dewpoint: 21.0°C (70°F) [RH = 70%]
Pressure (altimeter): 29.97 inches Hg (1015.0 mb)
Winds: from the S (180 degrees) at 14 MPH (12 knots; 6.2 m/s)
Visibility: 6 or more miles (10+ km)
Ceiling: at least 12,000 feet AGL
Clouds: scattered clouds at 2500 feet AGL
Weather: no significant weather observed at this time

METAR text: DGAA 081400Z 19011KT 9999 SCT029 27/20 Q1016 NOSIG
Conditions at: DGAA (ACCRA/KOTOKA INT, GH) observed 1400 UTC 08 August 2020
Temperature: 27.0°C (81°F)
Dewpoint: 20.0°C (68°F) [RH = 66%]
Pressure (altimeter): 30.00 inches Hg (1016.0 mb)
Winds: from the S (190 degrees) at 13 MPH (11 knots; 5.7 m/s)
Visibility: 6 or more miles (10+ km)
Ceiling: at least 12,000 feet AGL
Clouds: scattered clouds at 2900 feet AGL
Weather: no significant weather observed at this time

METAR text: DGAA 081300Z 17009KT 140V200 9999 SCT028 28/21 Q1016 NOSIG
Conditions at: DGAA (ACCRA/KOTOKA INT, GH) observed 1300 UTC 08 August 2020
Temperature: 28.0°C (82°F)
Dewpoint: 21.0°C (70°F) [RH = 66%]
Pressure (altimeter): 30.00 inches Hg (1016.0 mb)
Winds: from the S (170 degrees) at 10 MPH (9 knots; 4.6 m/s)
Visibility: 6 or more miles (10+ km)
Ceiling: at least 12,000 feet AGL
Clouds: scattered clouds at 2800 feet AGL
Weather: no significant weather observed at this time

METAR text: DGAA 081200Z 18008KT 150V210 9999 FEW024 27/21 Q1017 NOSIG
Conditions at: DGAA (ACCRA/KOTOKA INT, GH) observed 1200 UTC 08 August 2020
Temperature: 27.0°C (81°F)
Dewpoint: 21.0°C (70°F) [RH = 70%]
Pressure (altimeter): 30.03 inches Hg (1017.0 mb)
Winds: from the S (180 degrees) at 9 MPH (8 knots; 4.1 m/s)
Visibility: 6 or more miles (10+ km)
Ceiling: at least 12,000 feet AGL
Clouds: few clouds at 2400 feet AGL
Weather: no significant weather observed at this time

METAR text: DGAA 081100Z 19009KT 9999 SCT017 26/21 Q1018 NOSIG
Conditions at: DGAA (ACCRA/KOTOKA INT, GH) observed 1100 UTC 08 August 2020
Temperature: 26.0°C (79°F)
Dewpoint: 21.0°C (70°F) [RH = 74%]
Pressure (altimeter): 30.06 inches Hg (1018.0 mb)
Winds: from the S (190 degrees) at 10 MPH (9 knots; 4.6 m/s)
Visibility: 6 or more miles (10+ km)
Ceiling: at least 12,000 feet AGL
Clouds: scattered clouds at 1700 feet AGL
Weather: no significant weather observed at this time

METAR text: DGAA 081000Z 20008KT 9999 SCT014 25/22 Q1018 NOSIG
Conditions at: DGAA (ACCRA/KOTOKA INT, GH) observed 1000 UTC 08 August 2020
Temperature: 25.0°C (77°F)
Dewpoint: 22.0°C (72°F) [RH = 83%]
Pressure (altimeter): 30.06 inches Hg (1018.0 mb)
Winds: from the SSW (200 degrees) at 9 MPH (8 knots; 4.1 m/s)
Visibility: 6 or more miles (10+ km)
Ceiling: at least 12,000 feet AGL
Clouds: scattered clouds at 1400 feet AGL
Weather: no significant weather observed at this time

METAR text: DGAA 080800Z 21007KT 8000 FEW013 24/22 Q1018 NOSIG
Conditions at: DGAA (ACCRA/KOTOKA INT, GH) observed 0800 UTC 08 August 2020
Temperature: 24.0°C (75°F)
Dewpoint: 22.0°C (72°F) [RH = 89%]
Pressure (altimeter): 30.06 inches Hg (1018.0 mb)
Winds: from the SSW (210 degrees) at 8 MPH (7 knots; 3.6 m/s)
Visibility: 5 miles ( 8 km)
Ceiling: at least 12,000 feet AGL
Clouds: few clouds at 1300 feet AGL
Weather: no significant weather observed at this time

METAR text: DGAA 080700Z 21008KT 8000 FEW034 23/21 Q1017 NOSIG
Conditions at: DGAA (ACCRA/KOTOKA INT, GH) observed 0700 UTC 08 August 2020
Temperature: 23.0°C (73°F)
Dewpoint: 21.0°C (70°F) [RH = 89%]
Pressure (altimeter): 30.03 inches Hg (1017.0 mb)
Winds: from the SSW (210 degrees) at 9 MPH (8 knots; 4.1 m/s)
Visibility: 5 miles ( 8 km)
Ceiling: at least 12,000 feet AGL
Clouds: few clouds at 3400 feet AGL
Weather: no significant weather observed at this time

METAR text: DGAA 080600Z 22009KT 9999 FEW021 23/21 Q1017 NOSIG
Conditions at: DGAA (ACCRA/KOTOKA INT, GH) observed 0600 UTC 08 August 2020
Temperature: 23.0°C (73°F)
Dewpoint: 21.0°C (70°F) [RH = 89%]
Pressure (altimeter): 30.03 inches Hg (1017.0 mb)
Winds: from the SW (220 degrees) at 10 MPH (9 knots; 4.6 m/s)
Visibility: 6 or more miles (10+ km)
Ceiling: at least 12,000 feet AGL
Clouds: few clouds at 2100 feet AGL
Weather: no significant weather observed at this time

METAR text: DGAA 080500Z 22010KT 9999 SCT048 23/21 Q1016 NOSIG
Conditions at: DGAA (ACCRA/KOTOKA INT, GH) observed 0500 UTC 08 August 2020
Temperature: 23.0°C (73°F)
Dewpoint: 21.0°C (70°F) [RH = 89%]
Pressure (altimeter): 30.00 inches Hg (1016.0 mb)
Winds: from the SW (220 degrees) at 12 MPH (10 knots; 5.1 m/s)
Visibility: 6 or more miles (10+ km)
Ceiling: at least 12,000 feet AGL
Clouds: scattered clouds at 4800 feet AGL
Weather: no significant weather observed at this time

METAR text: DGAA 080400Z 23011KT 9999 BKN046 24/21 Q1016 NOSIG
Conditions at: DGAA (ACCRA/KOTOKA INT, GH) observed 0400 UTC 08 August 2020
Temperature: 24.0°C (75°F)
Dewpoint: 21.0°C (70°F) [RH = 83%]
Pressure (altimeter): 30.00 inches Hg (1016.0 mb)
Winds: from the SW (230 degrees) at 13 MPH (11 knots; 5.7 m/s)
Visibility: 6 or more miles (10+ km)
Ceiling: 4600 feet AGL
Clouds: broken clouds at 4600 feet AGL
Weather: no significant weather observed at this time

METAR text: DGAA 080300Z 24011KT 9999 FEW014 SCT045 24/21 Q1015 NOSIG
Conditions at: DGAA (ACCRA/KOTOKA INT, GH) observed 0300 UTC 08 August 2020
Temperature: 24.0°C (75°F)
Dewpoint: 21.0°C (70°F) [RH = 83%]
Pressure (altimeter): 29.97 inches Hg (1015.0 mb)
Winds: from the WSW (240 degrees) at 13 MPH (11 knots; 5.7 m/s)
Visibility: 6 or more miles (10+ km)
Ceiling: at least 12,000 feet AGL
Clouds: few clouds at 1400 feet AGL
scattered clouds at 4500 feet AGL
Weather: no significant weather observed at this time

METAR text: DGAA 080200Z 24010KT 9999 FEW013 BKN037 24/21 Q1015 NOSIG
Conditions at: DGAA (ACCRA/KOTOKA INT, GH) observed 0200 UTC 08 August 2020
Temperature: 24.0°C (75°F)
Dewpoint: 21.0°C (70°F) [RH = 83%]
Pressure (altimeter): 29.97 inches Hg (1015.0 mb)
Winds: from the WSW (240 degrees) at 12 MPH (10 knots; 5.1 m/s)
Visibility: 6 or more miles (10+ km)
Ceiling: 3700 feet AGL
Clouds: few clouds at 1300 feet AGL
broken clouds at 3700 feet AGL
Weather: no significant weather observed at this time

METAR text: DGAA 080100Z 24010KT 9999 FEW035 23/21 Q1016 NOSIG
Conditions at: DGAA (ACCRA/KOTOKA INT, GH) observed 0100 UTC 08 August 2020
Temperature: 23.0°C (73°F)
Dewpoint: 21.0°C (70°F) [RH = 89%]
Pressure (altimeter): 30.00 inches Hg (1016.0 mb)
Winds: from the WSW (240 degrees) at 12 MPH (10 knots; 5.1 m/s)
Visibility: 6 or more miles (10+ km)
Ceiling: at least 12,000 feet AGL
Clouds: few clouds at 3500 feet AGL
Weather: no significant weather observed at this time

METAR text: DGAA 080000Z 23011KT CAVOK 23/21 Q1016 NOSIG
Conditions at: DGAA (ACCRA/KOTOKA INT, GH) observed 0000 UTC 08 August 2020
Temperature: 23.0°C (73°F)
Dewpoint: 21.0°C (70°F) [RH = 89%]
Pressure (altimeter): 30.00 inches Hg (1016.0 mb)
Winds: from the SW (230 degrees) at 13 MPH (11 knots; 5.7 m/s)
Visibility: 6 or more miles (10+ km)
Ceiling: ceiling and visibility are OK
Clouds: unknown
Weather: no significant weather observed at this time

METAR text: DGAA 072300Z 23008KT CAVOK 23/22 Q1017 NOSIG
Conditions at: DGAA (ACCRA/KOTOKA INT, GH) observed 2300 UTC 07 August 2020
Temperature: 23.0°C (73°F)
Dewpoint: 22.0°C (72°F) [RH = 94%]
Pressure (altimeter): 30.03 inches Hg (1017.0 mb)
Winds: from the SW (230 degrees) at 9 MPH (8 knots; 4.1 m/s)
Visibility: 6 or more miles (10+ km)
Ceiling: ceiling and visibility are OK
Clouds: unknown
Weather: no significant weather observed at this time

METAR text: DGAA 072200Z 23010KT 9999 FEW011 23/22 Q1017 NOSIG
Conditions at: DGAA (ACCRA/KOTOKA INT, GH) observed 2200 UTC 07 August 2020
Temperature: 23.0°C (73°F)
Dewpoint: 22.0°C (72°F) [RH = 94%]
Pressure (altimeter): 30.03 inches Hg (1017.0 mb)
Winds: from the SW (230 degrees) at 12 MPH (10 knots; 5.1 m/s)
Visibility: 6 or more miles (10+ km)
Ceiling: at least 12,000 feet AGL
Clouds: few clouds at 1100 feet AGL
Weather: no significant weather observed at this time

METAR text: DGAA 072100Z 22010KT 9999 FEW009 23/22 Q1016 NOSIG
Conditions at: DGAA (ACCRA/KOTOKA INT, GH) observed 2100 UTC 07 August 2020
Temperature: 23.0°C (73°F)
Dewpoint: 22.0°C (72°F) [RH = 94%]
Pressure (altimeter): 30.00 inches Hg (1016.0 mb)
Winds: from the SW (220 degrees) at 12 MPH (10 knots; 5.1 m/s)
Visibility: 6 or more miles (10+ km)
Ceiling: at least 12,000 feet AGL
Clouds: few clouds at 900 feet AGL
Weather: no significant weather observed at this time

METAR text: DGAA 072000Z 22013KT 9999 FEW011 23/22 Q1016 NOSIG
Conditions at: DGAA (ACCRA/KOTOKA INT, GH) observed 2000 UTC 07 August 2020
Temperature: 23.0°C (73°F)
Dewpoint: 22.0°C (72°F) [RH = 94%]
Pressure (altimeter): 30.00 inches Hg (1016.0 mb)
Winds: from the SW (220 degrees) at 15 MPH (13 knots; 6.7 m/s)
Visibility: 6 or more miles (10+ km)
Ceiling: at least 12,000 feet AGL
Clouds: few clouds at 1100 feet AGL
Weather: no significant weather observed at this time

METAR text: DGAA 071900Z 22014KT CAVOK 24/21 Q1015 NOSIG
Conditions at: DGAA (ACCRA/KOTOKA INT, GH) observed 1900 UTC 07 August 2020
Temperature: 24.0°C (75°F)
Dewpoint: 21.0°C (70°F) [RH = 83%]
Pressure (altimeter): 29.97 inches Hg (1015.0 mb)
Winds: from the SW (220 degrees) at 16 MPH (14 knots; 7.2 m/s)
Visibility: 6 or more miles (10+ km)
Ceiling: ceiling and visibility are OK
Clouds: unknown
Weather: no significant weather observed at this time

METAR text: DGAA 071800Z 21015KT CAVOK 24/21 Q1015 NOSIG
Conditions at: DGAA (ACCRA/KOTOKA INT, GH) observed 1800 UTC 07 August 2020
Temperature: 24.0°C (75°F)
Dewpoint: 21.0°C (70°F) [RH = 83%]
Pressure (altimeter): 29.97 inches Hg (1015.0 mb)
Winds: from the SSW (210 degrees) at 17 MPH (15 knots; 7.7 m/s)
Visibility: 6 or more miles (10+ km)
Ceiling: ceiling and visibility are OK
Clouds: unknown
Weather: no significant weather observed at this time

METAR text: DGAA 071700Z 21015KT CAVOK 25/21 Q1014 NOSIG
Conditions at: DGAA (ACCRA/KOTOKA INT, GH) observed 1700 UTC 07 August 2020
Temperature: 25.0°C (77°F)
Dewpoint: 21.0°C (70°F) [RH = 79%]
Pressure (altimeter): 29.94 inches Hg (1014.0 mb)
Winds: from the SSW (210 degrees) at 17 MPH (15 knots; 7.7 m/s)
Visibility: 6 or more miles (10+ km)
Ceiling: ceiling and visibility are OK
Clouds: unknown
Weather: no significant weather observed at this time

METAR text: DGAA 071600Z 21018KT CAVOK 26/20 Q1014 NOSIG
Conditions at: DGAA (ACCRA/KOTOKA INT, GH) observed 1600 UTC 07 August 2020
Temperature: 26.0°C (79°F)
Dewpoint: 20.0°C (68°F) [RH = 70%]
Pressure (altimeter): 29.94 inches Hg (1014.0 mb)
Winds: from the SSW (210 degrees) at 21 MPH (18 knots; 9.3 m/s)
Visibility: 6 or more miles (10+ km)
Ceiling: ceiling and visibility are OK
Clouds: unknown
Weather: no significant weather observed at this time

METAR text: DGAA 071500Z 20018KT CAVOK 26/20 Q1014 NOSIG
Conditions at: DGAA (ACCRA/KOTOKA INT, GH) observed 1500 UTC 07 August 2020
Temperature: 26.0°C (79°F)
Dewpoint: 20.0°C (68°F) [RH = 70%]
Pressure (altimeter): 29.94 inches Hg (1014.0 mb)
Winds: from the SSW (200 degrees) at 21 MPH (18 knots; 9.3 m/s)
Visibility: 6 or more miles (10+ km)
Ceiling: ceiling and visibility are OK
Clouds: unknown
Weather: no significant weather observed at this time

METAR text: DGAA 071400Z 20019KT CAVOK 27/20 Q1015 NOSIG
Conditions at: DGAA (ACCRA/KOTOKA INT, GH) observed 1400 UTC 07 August 2020
Temperature: 27.0°C (81°F)
Dewpoint: 20.0°C (68°F) [RH = 66%]
Pressure (altimeter): 29.97 inches Hg (1015.0 mb)
Winds: from the SSW (200 degrees) at 22 MPH (19 knots; 9.8 m/s)
Visibility: 6 or more miles (10+ km)
Ceiling: ceiling and visibility are OK
Clouds: unknown
Weather: no significant weather observed at this time

METAR text: DGAA 071300Z 19018KT 9999 FEW002 26/20 Q1015 NOSIG
Conditions at: DGAA (ACCRA/KOTOKA INT, GH) observed 1300 UTC 07 August 2020
Temperature: 26.0°C (79°F)
Dewpoint: 20.0°C (68°F) [RH = 70%]
Pressure (altimeter): 29.97 inches Hg (1015.0 mb)
Winds: from the S (190 degrees) at 21 MPH (18 knots; 9.3 m/s)
Visibility: 6 or more miles (10+ km)
Ceiling: at least 12,000 feet AGL
Clouds: few clouds at 200 feet AGL
Weather: no significant weather observed at this time

METAR text: DGAA 071200Z 21013KT 180V240 9999 FEW029 27/21 Q1016 NOSIG
Conditions at: DGAA (ACCRA/KOTOKA INT, GH) observed 1200 UTC 07 August 2020
Temperature: 27.0°C (81°F)
Dewpoint: 21.0°C (70°F) [RH = 70%]
Pressure (altimeter): 30.00 inches Hg (1016.0 mb)
Winds: from the SSW (210 degrees) at 15 MPH (13 knots; 6.7 m/s)
Visibility: 6 or more miles (10+ km)
Ceiling: at least 12,000 feet AGL
Clouds: few clouds at 2900 feet AGL
Weather: no significant weather observed at this time

METAR text: DGAA 071100Z 25012KT 9999 FEW025 27/20 Q1016 NOSIG
Conditions at: DGAA (ACCRA/KOTOKA INT, GH) observed 1100 UTC 07 August 2020
Temperature: 27.0°C (81°F)
Dewpoint: 20.0°C (68°F) [RH = 66%]
Pressure (altimeter): 30.00 inches Hg (1016.0 mb)
Winds: from the WSW (250 degrees) at 14 MPH (12 knots; 6.2 m/s)
Visibility: 6 or more miles (10+ km)
Ceiling: at least 12,000 feet AGL
Clouds: few clouds at 2500 feet AGL
Weather: no significant weather observed at this time

METAR text: DGAA 071000Z 25012KT 9999 FEW023 26/20 Q1017 NOSIG
Conditions at: DGAA (ACCRA/KOTOKA INT, GH) observed 1000 UTC 07 August 2020
Temperature: 26.0°C (79°F)
Dewpoint: 20.0°C (68°F) [RH = 70%]
Pressure (altimeter): 30.03 inches Hg (1017.0 mb)
Winds: from the WSW (250 degrees) at 14 MPH (12 knots; 6.2 m/s)
Visibility: 6 or more miles (10+ km)
Ceiling: at least 12,000 feet AGL
Clouds: few clouds at 2300 feet AGL
Weather: no significant weather observed at this time

METAR text: DGAA 070900Z 25012KT 9999 FEW016 25/21 Q1017 NOSIG
Conditions at: DGAA (ACCRA/KOTOKA INT, GH) observed 0900 UTC 07 August 2020
Temperature: 25.0°C (77°F)
Dewpoint: 21.0°C (70°F) [RH = 79%]
Pressure (altimeter): 30.03 inches Hg (1017.0 mb)
Winds: from the WSW (250 degrees) at 14 MPH (12 knots; 6.2 m/s)
Visibility: 6 or more miles (10+ km)
Ceiling: at least 12,000 feet AGL
Clouds: few clouds at 1600 feet AGL
Weather: no significant weather observed at this time

Forecast for: DGAA (ACCRA/KOTOKA INT, GH)
Text: TAF DGAA 081700Z 0818/0924 19010KT 9999 FEW016
Forecast period: 1800 to 2300 UTC 08 August 2020
Forecast type: FROM: standard forecast or significant change
Winds: from the S (190 degrees) at 12 MPH (10 knots; 5.1 m/s)
Visibility: 6 or more miles (10+ km)
Ceiling: at least 12,000 feet AGL
Clouds: few clouds at 1600 feet AGL
Weather: no significant weather forecast for this period
Text: BECMG 0823/0901 27008KT
Forecast period: 2300 UTC 08 August 2020 to 1100 UTC 09 August 2020
Forecast type: BECOMING: Conditions expected to become as follows by 0100 UTC 09 August 2020
Winds: from the W (270 degrees) at 9 MPH (8 knots; 4.1 m/s)
Visibility: 6 or more miles (10+ km)
Ceiling: at least 12,000 feet AGL
Clouds: few clouds at 1600 feet AGL
Weather: no significant weather forecast for this period
Text: TEMPO 0906/0909 8000 BKN012
Forecast period: 0600 to 0900 UTC 09 August 2020
Forecast type: TEMPORARY: The following changes expected for less than half the time period
Visibility: 5 miles (8 km)
Ceiling: 1200 feet AGL
Clouds: broken clouds at 1200 feet AGL
Weather: no significant weather forecast for this period
Text: BECMG 0911/0913 22010KT SCT018
Forecast period: 1100 UTC 09 August 2020 to 0000 UTC 10 August 2020
Forecast type: BECOMING: Conditions expected to become as follows by 1300 UTC 09 August 2020
Winds: from the SW (220 degrees) at 12 MPH (10 knots; 5.1 m/s)
Visibility: 6 or more miles (10+ km)
Ceiling: at least 12,000 feet AGL
Clouds: scattered clouds at 1800 feet AGL
Weather: no significant weather forecast for this period